createdAt,value
2022-08-14T00:02:26.975Z,80.60
2022-08-14T00:04:56.576Z,80.70
2022-08-14T00:07:23.899Z,81.00
2022-08-14T00:09:56.100Z,81.10
2022-08-14T00:15:43.895Z,81.50
2022-08-14T00:18:30.726Z,81.50
2022-08-14T00:21:11.331Z,81.60
2022-08-14T00:23:40.447Z,81.50
2022-08-14T00:26:23.159Z,81.60
2022-08-14T00:28:53.742Z,81.80
2022-08-14T00:31:23.091Z,82.00
2022-08-14T00:34:36.895Z,82.00
2022-08-14T00:36:56.611Z,82.10
2022-08-14T00:39:26.855Z,82.10
2022-08-14T00:41:54.290Z,82.40
2022-08-14T00:44:31.811Z,82.50
2022-08-14T00:47:02.492Z,82.50
2022-08-14T00:49:38.057Z,83.30
2022-08-14T00:52:18.171Z,82.90
2022-08-14T00:54:57.943Z,82.90
2022-08-14T00:57:36.141Z,82.90
2022-08-14T01:00:34.006Z,83.10
2022-08-14T01:03:05.788Z,83.00
2022-08-14T01:05:50.824Z,83.20
2022-08-14T01:08:51.999Z,83.20
2022-08-14T01:11:19.460Z,83.10
2022-08-14T01:13:50.733Z,83.20
2022-08-14T01:16:27.919Z,83.30
2022-08-14T01:19:16.521Z,83.50
2022-08-14T01:21:47.310Z,83.80
2022-08-14T01:24:30.813Z,84.00
2022-08-14T01:27:04.909Z,84.00
2022-08-14T01:30:03.171Z,84.10
2022-08-14T01:32:25.324Z,84.00
2022-08-14T01:35:21.222Z,84.00
2022-08-14T01:37:56.464Z,84.00
2022-08-14T01:40:36.486Z,83.60
2022-08-14T01:43:15.821Z,83.60
2022-08-14T01:45:57.917Z,83.60
2022-08-14T01:48:37.373Z,83.60
2022-08-14T01:51:19.259Z,83.40
2022-08-14T01:53:57.172Z,83.30
2022-08-14T01:56:42.903Z,83.20
2022-08-14T01:59:38.004Z,83.30
2022-08-14T02:02:18.969Z,83.10
2022-08-14T02:04:56.237Z,83.20
2022-08-14T02:07:34.452Z,83.30
2022-08-14T02:10:15.906Z,83.30
2022-08-14T02:12:54.292Z,83.10
2022-08-14T02:15:26.263Z,83.00
2022-08-14T02:17:55.541Z,83.30
2022-08-14T02:20:24.078Z,83.10
2022-08-14T02:22:55.095Z,83.20
2022-08-14T02:25:23.588Z,83.10
2022-08-14T02:28:22.026Z,83.10
2022-08-14T02:30:39.243Z,83.20
2022-08-14T02:33:07.633Z,83.40
2022-08-14T02:35:43.617Z,83.60
2022-08-14T02:38:30.090Z,83.70
2022-08-14T02:41:02.883Z,83.90
2022-08-14T02:43:46.430Z,84.30
2022-08-14T02:46:20.506Z,84.50
2022-08-14T02:49:04.605Z,84.60
2022-08-14T02:51:36.740Z,84.90
2022-08-14T02:54:09.651Z,85.10
2022-08-14T02:57:16.681Z,85.40
2022-08-14T02:59:35.467Z,85.80
2022-08-14T03:02:04.616Z,86.10
2022-08-14T03:04:32.952Z,86.10
2022-08-14T03:07:07.704Z,86.30
2022-08-14T03:09:41.899Z,86.50
2022-08-14T03:12:32.254Z,86.70
2022-08-14T03:15:14.246Z,87.10
2022-08-14T03:17:57.255Z,87.20
2022-08-14T03:20:30.634Z,87.50
2022-08-14T03:23:03.184Z,87.70
2022-08-14T03:25:37.339Z,87.70
2022-08-14T03:28:08.554Z,87.60
2022-08-14T03:30:42.516Z,87.80
2022-08-14T03:33:13.107Z,87.50
2022-08-14T03:35:59.938Z,87.10
2022-08-14T03:39:16.103Z,86.60
2022-08-14T03:41:24.880Z,86.00
2022-08-14T03:44:01.094Z,85.70
2022-08-14T03:46:54.698Z,85.10
2022-08-14T03:49:28.814Z,84.90
2022-08-14T03:52:01.140Z,84.70
2022-08-14T03:54:30.199Z,84.60
2022-08-14T03:57:03.612Z,84.70
2022-08-14T03:59:32.973Z,84.70
2022-08-14T04:02:04.431Z,84.70
2022-08-14T04:04:38.274Z,84.60
2022-08-14T04:07:06.854Z,84.40
2022-08-14T04:09:34.200Z,84.50
2022-08-14T04:12:03.004Z,84.60
2022-08-14T04:14:37.166Z,84.70
2022-08-14T04:17:09.972Z,84.70
2022-08-14T04:19:39.062Z,84.70
2022-08-14T04:22:08.160Z,84.60
2022-08-14T04:24:38.159Z,84.60
2022-08-14T04:27:11.894Z,84.30
2022-08-14T04:29:45.398Z,84.20
2022-08-14T04:33:02.021Z,84.30
2022-08-14T04:35:07.293Z,84.30
2022-08-14T04:37:53.958Z,84.20
2022-08-14T04:40:40.601Z,84.30
2022-08-14T04:43:38.477Z,84.30
2022-08-14T04:46:08.917Z,84.40
2022-08-14T04:48:43.596Z,84.40
2022-08-14T04:51:21.885Z,84.40
2022-08-14T04:53:51.429Z,84.30
2022-08-14T04:56:30.578Z,84.40
2022-08-14T04:59:09.661Z,84.20
2022-08-14T05:01:48.678Z,84.00
2022-08-14T05:04:21.231Z,83.80
2022-08-14T05:06:55.041Z,83.60
2022-08-14T05:09:28.926Z,83.40
2022-08-14T05:12:08.600Z,83.30
2022-08-14T05:14:54.704Z,83.10
2022-08-14T05:17:28.762Z,82.70
2022-08-14T05:21:04.380Z,82.30
2022-08-14T05:23:01.819Z,81.70
2022-08-14T05:25:30.765Z,81.00
2022-08-14T05:28:19.106Z,80.90
2022-08-14T05:30:51.412Z,80.30
2022-08-14T05:33:25.069Z,79.80
2022-08-14T05:35:53.883Z,79.40
2022-08-14T05:38:31.931Z,78.80
2022-08-14T05:41:17.899Z,78.50
2022-08-14T05:43:48.637Z,77.90
2022-08-14T05:46:19.364Z,77.30
2022-08-14T05:48:53.274Z,76.50
2022-08-14T05:51:23.987Z,76.20
2022-08-14T05:53:56.955Z,74.90
2022-08-14T05:56:30.447Z,74.00
2022-08-14T05:58:57.748Z,73.20
2022-08-14T06:01:31.655Z,72.50
2022-08-14T06:04:00.522Z,71.50
2022-08-14T06:06:27.901Z,71.40
2022-08-14T06:08:55.405Z,71.00
2022-08-14T06:11:40.653Z,71.20
2022-08-14T06:14:20.905Z,72.00
2022-08-14T06:16:53.261Z,72.10
2022-08-14T06:19:21.628Z,72.00
2022-08-14T06:21:58.406Z,71.80
2022-08-14T06:24:30.797Z,71.40
2022-08-14T06:27:05.857Z,71.10
2022-08-14T06:29:35.346Z,71.10
2022-08-14T06:32:36.696Z,71.70
2022-08-14T06:35:09.809Z,71.70
2022-08-14T06:37:53.194Z,71.60
2022-08-14T06:40:27.735Z,71.70
2022-08-14T06:43:15.691Z,71.30
2022-08-14T06:45:50.141Z,71.30
2022-08-14T06:48:24.451Z,71.90
2022-08-14T06:50:54.575Z,71.60
2022-08-14T06:53:28.296Z,71.60
2022-08-14T06:55:58.405Z,71.70
2022-08-14T06:58:30.860Z,71.60
2022-08-14T07:01:26.781Z,71.20
2022-08-14T07:04:22.810Z,70.90
2022-08-14T07:06:52.251Z,70.70
2022-08-14T07:09:23.583Z,69.80
2022-08-14T07:11:52.225Z,69.40
2022-08-14T07:14:19.980Z,69.50
2022-08-14T07:16:47.718Z,69.10
2022-08-14T07:19:21.023Z,69.00
2022-08-14T07:21:49.290Z,68.90
2022-08-14T07:24:26.157Z,68.70
2022-08-14T07:27:00.991Z,68.70
2022-08-14T07:29:30.323Z,68.50
2022-08-14T07:31:57.649Z,68.10
2022-08-14T07:34:36.587Z,68.00
2022-08-14T07:37:08.588Z,67.80
2022-08-14T07:39:37.519Z,68.10
2022-08-14T07:42:06.876Z,68.50
2022-08-14T07:44:45.853Z,68.70
2022-08-14T07:47:16.569Z,68.50
2022-08-14T07:50:13.828Z,68.40
2022-08-14T07:52:50.311Z,68.00
2022-08-14T07:55:21.225Z,67.40
2022-08-14T07:57:52.012Z,67.20
2022-08-14T08:00:31.295Z,67.10
2022-08-14T08:03:00.379Z,66.70
2022-08-14T08:05:28.369Z,66.50
2022-08-14T08:07:55.801Z,66.30
2022-08-14T08:11:01.390Z,66.10
2022-08-14T08:13:24.392Z,65.40
2022-08-14T08:15:57.713Z,65.40
2022-08-14T08:18:27.498Z,65.30
2022-08-14T08:20:59.365Z,64.40
2022-08-14T08:23:40.928Z,63.80
2022-08-14T08:26:11.223Z,63.20
2022-08-14T08:28:38.687Z,62.60
2022-08-14T08:31:12.778Z,61.80
2022-08-14T08:33:49.595Z,61.40
2022-08-14T08:36:18.770Z,60.30
2022-08-14T08:39:17.568Z,59.80
2022-08-14T08:41:53.786Z,59.50
2022-08-14T08:44:33.055Z,59.10
2022-08-14T08:47:08.112Z,59.10
2022-08-14T08:49:59.295Z,58.90
2022-08-14T08:52:31.990Z,58.70
2022-08-14T08:55:12.823Z,59.00
2022-08-14T08:57:40.382Z,59.10
2022-08-14T09:00:25.535Z,58.70
2022-08-14T09:03:12.563Z,58.00
2022-08-14T09:05:50.733Z,57.00
2022-08-14T09:08:31.479Z,56.60
2022-08-14T09:11:19.406Z,55.00
2022-08-14T09:13:54.134Z,55.00
2022-08-14T09:16:26.709Z,54.40
2022-08-14T09:18:55.228Z,54.10
2022-08-14T09:21:24.061Z,53.70
2022-08-14T09:24:26.169Z,53.70
2022-08-14T09:26:49.400Z,53.40
2022-08-14T09:29:19.992Z,52.40
2022-08-14T09:32:00.277Z,52.20
2022-08-14T09:34:33.561Z,52.50
2022-08-14T09:37:43.784Z,52.70
2022-08-14T09:40:34.347Z,52.10
2022-08-14T09:43:36.607Z,52.30
2022-08-14T09:46:08.208Z,52.50
2022-08-14T09:48:38.130Z,52.40
2022-08-14T09:54:17.790Z,52.10
2022-08-14T09:56:57.494Z,52.00
2022-08-14T09:59:32.187Z,51.50
2022-08-14T10:02:07.206Z,51.00
2022-08-14T10:04:43.645Z,50.50
2022-08-14T10:07:13.888Z,50.10
2022-08-14T10:10:00.259Z,50.00
2022-08-14T10:12:44.867Z,50.10
2022-08-14T10:15:29.793Z,51.10
2022-08-14T10:18:18.329Z,50.60
2022-08-14T10:20:57.862Z,50.90
2022-08-14T10:23:30.176Z,50.90
2022-08-14T10:26:08.129Z,51.00
2022-08-14T10:29:18.302Z,51.20
2022-08-14T10:31:45.197Z,50.90
2022-08-14T10:34:20.017Z,50.70
2022-08-14T10:37:14.867Z,51.20
2022-08-14T10:40:02.001Z,51.40
2022-08-14T10:42:45.117Z,51.30
2022-08-14T10:45:35.455Z,51.00
2022-08-14T10:48:34.537Z,50.50
2022-08-14T10:51:08.354Z,50.00
2022-08-14T10:53:39.915Z,49.50
2022-08-14T10:56:21.573Z,49.00
2022-08-14T10:59:08.912Z,48.50
2022-08-14T11:01:41.333Z,48.60
2022-08-14T11:04:27.847Z,48.50
2022-08-14T11:06:57.283Z,47.50
2022-08-14T11:09:26.365Z,48.00
2022-08-14T11:12:34.959Z,48.00
2022-08-14T11:15:02.594Z,48.30
2022-08-14T11:17:37.541Z,47.90
2022-08-14T11:20:16.227Z,47.90
2022-08-14T11:23:03.235Z,47.20
2022-08-14T11:25:36.739Z,46.70
2022-08-14T11:28:19.523Z,46.10
2022-08-14T11:30:53.690Z,45.70
2022-08-14T11:33:31.173Z,45.20
2022-08-14T11:36:02.188Z,45.60
2022-08-14T11:38:44.879Z,46.70
2022-08-14T11:41:17.654Z,45.90
2022-08-14T11:43:58.124Z,45.50
2022-08-14T11:46:30.727Z,46.00
2022-08-14T11:49:07.025Z,46.50
2022-08-14T11:51:36.392Z,46.00
2022-08-14T11:54:33.957Z,46.00
2022-08-14T11:57:05.231Z,45.80
2022-08-14T11:59:33.993Z,45.80
2022-08-14T12:03:00.600Z,45.80
2022-08-14T12:05:09.740Z,45.60
2022-08-14T12:07:48.576Z,45.80
2022-08-14T12:10:26.055Z,46.00
2022-08-14T12:13:17.596Z,45.80
2022-08-14T12:15:56.752Z,45.70
2022-08-14T12:18:38.395Z,46.00
2022-08-14T12:21:22.703Z,45.50
2022-08-14T12:24:06.070Z,44.90
2022-08-14T12:26:40.704Z,44.60
2022-08-14T12:29:16.332Z,44.30
2022-08-14T12:31:47.105Z,44.60
2022-08-14T12:34:20.389Z,44.50
2022-08-14T12:36:48.292Z,44.30
2022-08-14T12:39:28.441Z,44.20
2022-08-14T12:42:08.050Z,44.80
2022-08-14T12:44:43.095Z,44.20
2022-08-14T12:47:17.872Z,44.70
2022-08-14T12:49:57.791Z,43.80
2022-08-14T12:52:53.958Z,43.70
2022-08-14T12:55:32.631Z,43.30
2022-08-14T12:58:29.580Z,43.10
2022-08-14T13:01:20.707Z,43.70
2022-08-14T13:03:51.077Z,43.40
2022-08-14T13:06:24.594Z,43.30
2022-08-14T13:08:53.900Z,43.30
2022-08-14T13:11:59.036Z,43.10
2022-08-14T13:14:38.411Z,42.80
2022-08-14T13:17:07.582Z,42.70
2022-08-14T13:19:41.275Z,42.60
2022-08-14T13:22:29.171Z,42.60
2022-08-14T13:24:57.696Z,42.50
2022-08-14T13:27:25.878Z,42.80
2022-08-14T13:29:58.577Z,42.50
2022-08-14T13:32:30.383Z,42.40
2022-08-14T13:35:00.209Z,42.40
2022-08-14T13:37:31.458Z,42.40
2022-08-14T13:40:00.863Z,41.80
2022-08-14T13:42:31.885Z,41.80
2022-08-14T13:45:03.998Z,42.10
2022-08-14T13:47:33.231Z,42.30
2022-08-14T13:50:11.672Z,42.10
2022-08-14T13:52:56.866Z,42.70
2022-08-14T13:55:29.522Z,43.10
2022-08-14T13:58:04.563Z,42.90
2022-08-14T14:00:51.788Z,42.70
2022-08-14T14:03:30.366Z,42.10
2022-08-14T14:06:02.202Z,41.80
2022-08-14T14:08:46.814Z,41.80
2022-08-14T14:11:24.220Z,41.90
2022-08-14T14:13:56.084Z,42.60
2022-08-14T14:16:30.068Z,42.50
2022-08-14T14:19:08.986Z,42.80
2022-08-14T14:21:40.965Z,43.00
2022-08-14T14:24:14.989Z,43.00
2022-08-14T14:26:50.232Z,42.90
2022-08-14T14:29:25.943Z,42.50
2022-08-14T14:31:54.120Z,42.40
2022-08-14T14:34:30.234Z,41.70
2022-08-14T14:37:03.495Z,41.80
2022-08-14T14:39:37.691Z,42.00
2022-08-14T14:42:08.316Z,41.80
2022-08-14T14:44:43.013Z,41.50
2022-08-14T14:47:13.595Z,41.30
2022-08-14T14:49:55.049Z,41.30
2022-08-14T14:52:27.874Z,41.20
2022-08-14T14:54:59.554Z,41.20
2022-08-14T14:57:34.954Z,41.20
2022-08-14T15:00:18.572Z,41.20
2022-08-14T15:02:51.536Z,41.70
2022-08-14T15:05:21.199Z,41.70
2022-08-14T15:07:51.395Z,42.00
2022-08-14T15:10:28.159Z,42.20
2022-08-14T15:13:03.735Z,42.10
2022-08-14T15:15:37.435Z,42.10
2022-08-14T15:18:36.990Z,42.20
2022-08-14T15:21:11.549Z,42.20
2022-08-14T15:23:44.771Z,42.60
2022-08-14T15:26:23.752Z,42.60
2022-08-14T15:29:06.507Z,42.40
2022-08-14T15:31:37.133Z,42.70
2022-08-14T15:34:45.928Z,42.80
2022-08-14T15:37:00.443Z,42.40
2022-08-14T15:39:29.673Z,42.50
2022-08-14T15:42:02.884Z,42.40
2022-08-14T15:44:34.278Z,42.00
2022-08-14T15:47:09.413Z,41.90
2022-08-14T15:49:38.067Z,41.70
2022-08-14T15:52:07.819Z,42.00
2022-08-14T15:54:36.082Z,41.60
2022-08-14T15:57:09.397Z,41.70
2022-08-14T15:59:57.382Z,41.40
2022-08-14T16:02:29.562Z,41.50
2022-08-14T16:04:57.631Z,41.80
2022-08-14T16:07:27.362Z,41.70
2022-08-14T16:10:25.290Z,40.80
2022-08-14T16:12:47.634Z,40.10
2022-08-14T16:15:16.986Z,39.30
2022-08-14T16:17:45.975Z,38.60
2022-08-14T16:20:41.964Z,38.30
2022-08-14T16:23:11.507Z,37.40
2022-08-14T16:25:44.467Z,37.00
2022-08-14T16:28:27.821Z,36.80
2022-08-14T16:30:56.683Z,36.80
2022-08-14T16:33:56.458Z,36.70
2022-08-14T16:39:12.676Z,39.00
2022-08-14T16:41:45.547Z,39.20
2022-08-14T16:44:33.777Z,40.20
2022-08-14T16:47:05.775Z,40.50
2022-08-14T16:50:04.486Z,41.20
2022-08-14T16:52:25.856Z,41.50
2022-08-14T16:55:14.272Z,42.30
2022-08-14T16:57:51.975Z,42.90
2022-08-14T17:00:43.864Z,43.30
2022-08-14T17:03:13.336Z,43.40
2022-08-14T17:05:47.030Z,43.70
2022-08-14T17:08:31.673Z,44.10
2022-08-14T17:11:12.902Z,44.50
2022-08-14T17:13:58.867Z,44.60
2022-08-14T17:16:35.679Z,44.90
2022-08-14T17:19:11.609Z,45.30
2022-08-14T17:21:47.592Z,45.50
2022-08-14T17:24:56.494Z,45.60
2022-08-14T17:27:09.263Z,47.20
2022-08-14T17:29:54.295Z,47.10
2022-08-14T17:32:30.019Z,47.30
2022-08-14T17:35:16.784Z,48.10
2022-08-14T17:40:35.911Z,48.10
2022-08-14T17:43:03.607Z,48.00
2022-08-14T17:45:41.620Z,47.80
2022-08-14T17:49:16.054Z,47.90
2022-08-14T17:51:23.285Z,48.00
2022-08-14T17:54:01.355Z,48.00
2022-08-14T17:56:34.191Z,48.70
2022-08-14T17:59:06.334Z,48.40
2022-08-14T18:01:37.779Z,48.60
2022-08-14T18:04:24.712Z,49.00
2022-08-14T18:07:08.747Z,49.30
2022-08-14T18:09:57.422Z,49.30
2022-08-14T18:12:36.901Z,49.30
2022-08-14T18:15:15.957Z,49.40
2022-08-14T18:17:53.198Z,49.40
2022-08-14T18:21:41.709Z,49.90
2022-08-14T18:23:13.618Z,50.10
2022-08-14T18:25:52.702Z,50.10
2022-08-14T18:28:48.015Z,50.30
2022-08-14T18:31:22.690Z,50.40
2022-08-14T18:34:11.769Z,50.50
2022-08-14T18:36:57.115Z,50.90
2022-08-14T18:39:32.656Z,51.00
2022-08-14T18:42:23.891Z,52.30
2022-08-14T18:44:52.669Z,51.90
2022-08-14T18:47:22.711Z,51.50
2022-08-14T18:49:53.105Z,52.60
2022-08-14T18:52:39.942Z,51.80
2022-08-14T18:55:19.018Z,52.40
2022-08-14T18:58:18.798Z,52.20
2022-08-14T19:00:58.713Z,52.20
2022-08-14T19:03:36.354Z,52.30
2022-08-14T19:06:07.064Z,52.50
2022-08-14T19:08:47.004Z,52.60
2022-08-14T19:11:32.690Z,52.80
2022-08-14T19:14:05.197Z,52.80
2022-08-14T19:16:43.034Z,52.80
2022-08-14T19:19:15.543Z,53.00
2022-08-14T19:21:56.814Z,53.30
2022-08-14T19:24:45.186Z,54.60
2022-08-14T19:27:24.156Z,53.50
2022-08-14T19:30:20.353Z,53.50
2022-08-14T19:32:53.098Z,54.00
2022-08-14T19:35:49.009Z,54.30
2022-08-14T19:38:53.830Z,54.40
2022-08-14T19:41:30.925Z,54.40
2022-08-14T19:44:19.313Z,54.30
2022-08-14T19:47:01.781Z,54.40
2022-08-14T19:50:24.593Z,54.40
2022-08-14T19:52:30.675Z,54.60
2022-08-14T19:55:15.573Z,54.70
2022-08-14T19:57:42.781Z,54.80
2022-08-14T20:00:28.109Z,54.80
2022-08-14T20:03:10.532Z,56.20
2022-08-14T20:05:45.617Z,57.70
2022-08-14T20:09:06.435Z,58.30
2022-08-14T20:11:19.229Z,58.80
2022-08-14T20:14:29.617Z,59.20
2022-08-14T20:17:05.954Z,59.60
2022-08-14T20:19:38.035Z,59.70
2022-08-14T20:22:35.655Z,59.80
2022-08-14T20:25:21.417Z,60.10
2022-08-14T20:27:58.531Z,60.40
2022-08-14T20:30:33.485Z,60.50
2022-08-14T20:33:11.314Z,60.70
2022-08-14T20:35:38.981Z,61.00
2022-08-14T20:38:29.397Z,61.20
2022-08-14T20:41:09.759Z,61.40
2022-08-14T20:44:01.038Z,61.80
2022-08-14T20:46:38.933Z,62.00
2022-08-14T20:49:18.853Z,62.20
2022-08-14T20:51:58.967Z,62.40
2022-08-14T20:54:34.592Z,62.30
2022-08-14T20:57:10.752Z,62.40
2022-08-14T20:59:53.546Z,62.60
2022-08-14T21:02:38.799Z,62.70
2022-08-14T21:05:19.409Z,62.70
2022-08-14T21:07:51.240Z,62.90
2022-08-14T21:10:35.638Z,63.00
2022-08-14T21:13:27.559Z,62.90
2022-08-14T21:15:58.118Z,63.00
2022-08-14T21:18:32.947Z,63.20
2022-08-14T21:21:07.939Z,63.30
2022-08-14T21:23:55.429Z,63.40
2022-08-14T21:26:50.568Z,63.40
2022-08-14T21:29:22.628Z,63.50
2022-08-14T21:31:56.010Z,63.80
2022-08-14T21:34:31.173Z,63.90
2022-08-14T21:37:10.037Z,63.90
2022-08-14T21:39:37.995Z,64.00
2022-08-14T21:42:06.333Z,64.10
2022-08-14T21:44:43.901Z,64.30
2022-08-14T21:47:16.005Z,64.40
2022-08-14T21:49:46.308Z,64.40
2022-08-14T21:52:50.894Z,64.60
2022-08-14T21:55:12.292Z,64.70
2022-08-14T21:57:57.042Z,64.80
2022-08-14T22:00:42.561Z,64.80
2022-08-14T22:03:17.246Z,64.90
2022-08-14T22:05:50.791Z,65.20
2022-08-14T22:08:26.941Z,65.20
2022-08-14T22:10:55.598Z,65.40
2022-08-14T22:13:27.661Z,65.60
2022-08-14T22:16:02.089Z,65.70
2022-08-14T22:18:31.034Z,65.80
2022-08-14T22:20:59.433Z,66.10
2022-08-14T22:23:28.188Z,66.20
2022-08-14T22:25:58.152Z,66.40
2022-08-14T22:28:32.888Z,66.60
2022-08-14T22:31:10.917Z,66.60
2022-08-14T22:33:40.343Z,66.60
2022-08-14T22:36:34.288Z,66.80
2022-08-14T22:39:11.023Z,66.90
2022-08-14T22:41:42.639Z,67.00
2022-08-14T22:44:15.596Z,67.00
2022-08-14T22:46:43.827Z,66.90
2022-08-14T22:49:15.368Z,67.20
2022-08-14T22:51:57.702Z,67.30
2022-08-14T22:54:52.874Z,67.30
2022-08-14T22:57:15.611Z,67.40
2022-08-14T22:59:44.736Z,67.50
2022-08-14T23:02:32.113Z,67.60
2022-08-14T23:05:03.481Z,67.80
2022-08-14T23:08:59.740Z,67.80
2022-08-14T23:10:33.443Z,68.00
2022-08-14T23:13:05.328Z,68.00
2022-08-14T23:15:35.280Z,68.10
2022-08-14T23:18:05.801Z,68.30
2022-08-14T23:20:33.932Z,68.40
2022-08-14T23:23:22.840Z,68.40
2022-08-14T23:25:59.695Z,68.60
2022-08-14T23:28:56.610Z,68.60
2022-08-14T23:31:35.810Z,68.30
2022-08-14T23:34:11.144Z,68.50
2022-08-14T23:36:54.213Z,69.30
2022-08-14T23:39:34.653Z,68.60
2022-08-14T23:42:08.700Z,67.70
2022-08-14T23:44:38.137Z,67.20
2022-08-14T23:47:12.158Z,66.70
2022-08-14T23:50:03.697Z,66.10
2022-08-14T23:52:50.272Z,65.80
2022-08-14T23:55:30.200Z,65.50
2022-08-14T23:58:00.633Z,65.30
